Time;durP1;ratioP1;P1;durP2;ratioP2;P2;SDS_P1;SDS_P2;PMS_P1;PMS_P2;Temp;Humidity;BMP_temperature;BMP_pressure;BME280_temperature;BME280_humidity;BME280_pressure;Samples;Min_cycle;Max_cycle;Signal;HPM_P1;HPM_P2
2023/05/27 00:01:21;;;;;;;24.15;4.32;;;;;;;;;;6211864;23;20009;-94
2023/05/27 00:03:51;;;;;;;28.95;3.67;;;;;;;;;;6213940;23;20007;-94
2023/05/27 00:06:17;;;;;;;19.48;3.97;;;;;;;;;;6212499;23;20473;-94
2023/05/27 00:08:43;;;;;;;11.98;3.33;;;;;;;;;;6212706;23;20020;-93
2023/05/27 00:11:09;;;;;;;26.13;4.20;;;;;;;;;;6211202;23;20414;-94
2023/05/27 00:13:35;;;;;;;12.25;3.55;;;;;;;;;;6210988;23;20082;-94
2023/05/27 00:16:02;;;;;;;23.95;4.15;;;;;;;;;;6213385;23;20051;-94
2023/05/27 00:18:28;;;;;;;24.80;4.97;;;;;;;;;;6211468;23;20008;-94
2023/05/27 00:20:54;;;;;;;19.23;4.88;;;;;;;;;;6212569;23;20033;-94
2023/05/27 00:23:24;;;;;;;16.73;4.00;;;;;;;;;;6237040;23;20377;-94
2023/05/27 00:25:57;;;;;;;16.63;3.70;;;;;;;;;;6237990;23;20023;-94
2023/05/27 00:28:24;;;;;;;19.15;3.97;;;;;;;;;;6186959;23;20435;-94
2023/05/27 00:30:50;;;;;;;12.60;4.07;;;;;;;;;;6212874;23;20015;-94
2023/05/27 00:33:16;;;;;;;25.60;4.15;;;;;;;;;;6211552;23;20074;-94
2023/05/27 00:35:43;;;;;;;14.45;3.60;;;;;;;;;;6221248;22;20388;-94
2023/05/27 00:38:09;;;;;;;15.80;4.18;;;;;;;;;;6246572;22;20008;-94
2023/05/27 00:40:35;;;;;;;8.30;3.72;;;;;;;;;;6248428;22;20015;-94
2023/05/27 00:43:02;;;;;;;21.70;4.53;;;;;;;;;;6246497;22;20027;-94
2023/05/27 00:45:28;;;;;;;24.05;4.43;;;;;;;;;;6247110;22;20016;-95
2023/05/27 00:47:54;;;;;;;23.67;4.28;;;;;;;;;;6246849;22;20012;-94
2023/05/27 00:50:26;;;;;;;24.58;4.35;;;;;;;;;;6247624;22;20045;-95
2023/05/27 00:52:55;;;;;;;15.23;4.15;;;;;;;;;;6246695;22;20309;-94
2023/05/27 00:55:22;;;;;;;23.13;4.28;;;;;;;;;;6245879;22;20019;-94
2023/05/27 00:57:54;;;;;;;19.40;4.35;;;;;;;;;;6246851;22;20004;-94
2023/05/27 01:00:21;;;;;;;22.67;4.68;;;;;;;;;;6246427;22;20314;-94
2023/05/27 01:02:57;;;;;;;24.55;4.28;;;;;;;;;;6247517;22;20008;-94
2023/05/27 01:05:23;;;;;;;18.02;3.88;;;;;;;;;;6245573;22;20437;-95
2023/05/27 01:07:55;;;;;;;17.40;4.15;;;;;;;;;;6245336;22;20011;-94
2023/05/27 01:10:39;;;;;;;17.98;4.05;;;;;;;;;;6245355;22;20011;-94
2023/05/27 01:13:14;;;;;;;14.52;4.30;;;;;;;;;;6243189;22;20011;-94
2023/05/27 01:15:41;;;;;;;14.57;3.90;;;;;;;;;;6245180;22;20398;-95
2023/05/27 01:18:09;;;;;;;11.05;3.53;;;;;;;;;;6246473;22;20644;-94
2023/05/27 01:20:40;;;;;;;10.85;3.67;;;;;;;;;;6246072;22;20023;-95
2023/05/27 01:23:08;;;;;;;24.40;4.70;;;;;;;;;;6244252;22;20003;-94
2023/05/27 01:25:35;;;;;;;23.52;3.95;;;;;;;;;;6245654;22;20000;-94
2023/05/27 01:28:05;;;;;;;20.20;4.65;;;;;;;;;;6243785;22;20023;-94
2023/05/27 01:30:35;;;;;;;15.05;3.88;;;;;;;;;;6245553;22;20023;-95
2023/05/27 01:33:05;;;;;;;22.13;5.20;;;;;;;;;;6246260;22;20012;-95
2023/05/27 01:35:35;;;;;;;18.08;4.05;;;;;;;;;;6246304;22;20023;-94
2023/05/27 01:38:05;;;;;;;14.18;3.80;;;;;;;;;;6234783;23;20209;-94
2023/05/27 01:40:32;;;;;;;15.77;4.32;;;;;;;;;;6235933;23;20017;-94
2023/05/27 01:43:23;;;;;;;15.52;4.55;;;;;;;;;;6235558;23;20001;-94
2023/05/27 01:45:47;;;;;;;23.77;4.47;;;;;;;;;;6211538;23;20012;-94
2023/05/27 01:48:13;;;;;;;12.85;3.63;;;;;;;;;;6186765;23;20017;-95
2023/05/27 01:50:39;;;;;;;15.68;3.83;;;;;;;;;;6209532;23;20009;-94
2023/05/27 01:53:09;;;;;;;28.45;5.30;;;;;;;;;;6212450;23;20016;-95
2023/05/27 01:55:38;;;;;;;19.02;4.28;;;;;;;;;;6209076;23;20467;-95
2023/05/27 01:58:05;;;;;;;36.38;5.35;;;;;;;;;;6210855;23;20004;-93
2023/05/27 02:00:31;;;;;;;19.60;4.78;;;;;;;;;;6187377;23;20114;-94
2023/05/27 02:02:57;;;;;;;15.45;4.00;;;;;;;;;;6187285;23;20031;-93
2023/05/27 02:05:24;;;;;;;14.07;4.25;;;;;;;;;;6184278;23;20013;-94
2023/05/27 02:07:50;;;;;;;19.95;4.20;;;;;;;;;;6211596;23;20063;-94
2023/05/27 02:10:16;;;;;;;17.33;4.78;;;;;;;;;;6187323;23;20095;-94
2023/05/27 02:12:45;;;;;;;27.30;4.50;;;;;;;;;;6185146;23;20013;-94
2023/05/27 02:15:11;;;;;;;25.75;4.88;;;;;;;;;;6209181;23;20008;-94
2023/05/27 02:17:38;;;;;;;44.38;8.95;;;;;;;;;;6186455;23;20008;-93
2023/05/27 02:20:05;;;;;;;26.90;5.10;;;;;;;;;;6185526;23;20028;-95
2023/05/27 02:22:31;;;;;;;18.58;4.55;;;;;;;;;;6185978;23;20008;-94
2023/05/27 02:25:04;;;;;;;22.02;4.57;;;;;;;;;;6184611;23;20008;-95
2023/05/27 02:27:30;;;;;;;17.55;4.07;;;;;;;;;;6208913;23;20005;-95
2023/05/27 02:29:56;;;;;;;19.35;4.47;;;;;;;;;;6185925;23;20013;-93
2023/05/27 02:32:22;;;;;;;12.88;4.03;;;;;;;;;;6186362;23;20016;-93
2023/05/27 02:34:49;;;;;;;25.70;4.50;;;;;;;;;;6186720;23;20016;-94
2023/05/27 02:37:16;;;;;;;15.50;4.28;;;;;;;;;;6186771;22;20088;-94
2023/05/27 02:39:42;;;;;;;26.63;4.93;;;;;;;;;;6210486;23;20021;-94
2023/05/27 02:42:08;;;;;;;18.92;4.75;;;;;;;;;;6211271;23;20618;-95
2023/05/27 02:44:34;;;;;;;28.88;5.22;;;;;;;;;;6210399;23;20255;-94
2023/05/27 02:47:00;;;;;;;21.80;4.72;;;;;;;;;;6211074;23;20023;-94
2023/05/27 02:49:26;;;;;;;27.05;4.13;;;;;;;;;;6210148;23;20016;-94
2023/05/27 02:51:53;;;;;;;26.20;4.63;;;;;;;;;;6211123;23;20503;-94
2023/05/27 02:54:26;;;;;;;22.60;4.65;;;;;;;;;;6209938;23;20319;-94
2023/05/27 02:56:52;;;;;;;22.75;4.70;;;;;;;;;;6210085;23;20021;-94
2023/05/27 02:59:18;;;;;;;17.80;4.40;;;;;;;;;;6209444;23;20490;-94
2023/05/27 03:01:44;;;;;;;27.48;4.10;;;;;;;;;;6210840;23;20001;-94
2023/05/27 03:04:11;;;;;;;34.28;4.30;;;;;;;;;;6209663;23;20004;-94
2023/05/27 03:06:37;;;;;;;24.58;5.03;;;;;;;;;;6210850;23;20410;-94
2023/05/27 03:09:04;;;;;;;19.88;4.80;;;;;;;;;;6210647;23;20020;-95
2023/05/27 03:11:34;;;;;;;18.23;5.00;;;;;;;;;;6210961;23;20043;-94
2023/05/27 03:14:25;;;;;;;28.17;4.65;;;;;;;;;;6210274;23;20090;-94
2023/05/27 03:16:55;;;;;;;18.58;4.43;;;;;;;;;;6210772;23;20458;-94
2023/05/27 03:19:21;;;;;;;14.82;4.90;;;;;;;;;;6211214;23;20024;-93
2023/05/27 03:21:47;;;;;;;24.42;4.57;;;;;;;;;;6211981;23;20001;-94
2023/05/27 03:24:14;;;;;;;28.02;4.88;;;;;;;;;;6184568;23;19997;-94
2023/05/27 03:26:43;;;;;;;19.17;4.50;;;;;;;;;;6185346;23;20020;-95
2023/05/27 03:29:10;;;;;;;20.40;5.25;;;;;;;;;;6208752;23;20005;-94
2023/05/27 03:31:36;;;;;;;16.67;4.72;;;;;;;;;;6212342;23;20008;-95
2023/05/27 03:34:02;;;;;;;18.02;4.07;;;;;;;;;;6210440;23;20036;-94
2023/05/27 03:36:29;;;;;;;18.30;4.70;;;;;;;;;;6222688;22;20023;-95
2023/05/27 03:38:56;;;;;;;22.73;4.85;;;;;;;;;;6239065;22;20373;-94
2023/05/27 03:41:22;;;;;;;28.02;4.82;;;;;;;;;;6240720;23;20123;-94
2023/05/27 03:43:51;;;;;;;17.65;5.15;;;;;;;;;;6240063;23;20005;-93
2023/05/27 03:46:18;;;;;;;18.83;4.30;;;;;;;;;;6240862;23;20501;-94
2023/05/27 03:48:44;;;;;;;25.20;4.65;;;;;;;;;;6241010;23;20019;-94
2023/05/27 03:51:11;;;;;;;23.52;5.00;;;;;;;;;;6243629;23;20026;-94
2023/05/27 03:53:37;;;;;;;21.52;4.47;;;;;;;;;;6243345;23;20414;-94
2023/05/27 03:56:03;;;;;;;23.13;5.57;;;;;;;;;;6269751;22;20335;-94
2023/05/27 03:58:30;;;;;;;20.42;4.80;;;;;;;;;;6241932;23;20020;-94
2023/05/27 04:00:56;;;;;;;20.77;5.13;;;;;;;;;;6244306;23;20333;-94
2023/05/27 04:03:31;;;;;;;20.88;4.97;;;;;;;;;;6242854;23;20501;-94
2023/05/27 04:05:58;;;;;;;21.48;5.63;;;;;;;;;;6244465;23;20008;-94
2023/05/27 04:08:40;;;;;;;21.05;5.28;;;;;;;;;;6242604;23;20050;-93
2023/05/27 04:11:07;;;;;;;21.33;3.85;;;;;;;;;;6243672;23;20497;-94
2023/05/27 04:13:33;;;;;;;20.75;5.38;;;;;;;;;;6241401;23;20019;-94
2023/05/27 04:16:00;;;;;;;23.17;4.32;;;;;;;;;;6244117;23;20008;-94
2023/05/27 04:18:31;;;;;;;37.03;5.57;;;;;;;;;;6241651;23;20472;-94
2023/05/27 04:20:58;;;;;;;16.58;4.18;;;;;;;;;;6243172;23;20224;-95
2023/05/27 04:23:25;;;;;;;18.05;4.50;;;;;;;;;;6242342;23;20008;-94
2023/05/27 04:26:00;;;;;;;16.75;4.18;;;;;;;;;;6243700;23;20035;-94
2023/05/27 04:28:34;;;;;;;25.83;4.65;;;;;;;;;;6241536;23;20031;-94
2023/05/27 04:31:02;;;;;;;24.98;4.60;;;;;;;;;;6242839;23;20334;-95
2023/05/27 04:33:31;;;;;;;24.05;4.50;;;;;;;;;;6242647;23;20012;-95
2023/05/27 04:35:58;;;;;;;25.65;5.00;;;;;;;;;;6243198;22;20008;-94
2023/05/27 04:38:31;;;;;;;21.20;3.85;;;;;;;;;;6247158;22;20039;-94
2023/05/27 04:40:58;;;;;;;15.32;4.28;;;;;;;;;;6246462;22;20035;-94
2023/05/27 04:43:26;;;;;;;25.13;4.18;;;;;;;;;;6247050;22;20012;-95
2023/05/27 04:45:56;;;;;;;17.90;5.80;;;;;;;;;;6247444;22;20057;-92
2023/05/27 04:48:35;;;;;;;21.67;4.18;;;;;;;;;;6246498;22;20007;-94
2023/05/27 04:51:01;;;;;;;16.80;4.07;;;;;;;;;;6247644;22;20457;-95
2023/05/27 04:53:28;;;;;;;22.27;4.60;;;;;;;;;;6246985;22;20018;-94
2023/05/27 04:56:03;;;;;;;20.00;4.72;;;;;;;;;;6248611;22;20012;-94
2023/05/27 05:04:12;;;;;;;19.08;4.10;;;;;;;;;;6257642;22;20008;-94
2023/05/27 05:06:40;;;;;;;19.05;3.97;;;;;;;;;;6246567;22;20071;-95
2023/05/27 05:09:11;;;;;;;22.70;4.60;;;;;;;;;;6246742;22;20033;-94
2023/05/27 05:11:40;;;;;;;14.02;3.67;;;;;;;;;;6244905;22;20008;-94
2023/05/27 05:14:15;;;;;;;18.38;4.55;;;;;;;;;;6246802;22;20031;-95
2023/05/27 05:16:48;;;;;;;19.75;4.15;;;;;;;;;;6245629;22;20011;-95
2023/05/27 05:19:22;;;;;;;18.45;4.50;;;;;;;;;;6272202;22;20019;-95
2023/05/27 05:21:48;;;;;;;22.90;3.90;;;;;;;;;;6247375;22;20311;-94
2023/05/27 05:24:15;;;;;;;13.90;4.03;;;;;;;;;;6272125;22;20014;-95
2023/05/27 05:26:44;;;;;;;28.38;4.57;;;;;;;;;;6245815;22;20015;-94
2023/05/27 05:29:10;;;;;;;24.98;4.15;;;;;;;;;;6247446;22;20422;-94
2023/05/27 05:31:39;;;;;;;20.20;4.07;;;;;;;;;;6245677;22;20043;-94
2023/05/27 05:34:05;;;;;;;24.40;6.07;;;;;;;;;;6246061;22;20398;-93
2023/05/27 05:36:39;;;;;;;16.25;4.85;;;;;;;;;;6244556;22;20072;-94
2023/05/27 05:39:13;;;;;;;23.55;4.82;;;;;;;;;;6246787;22;20441;-94
2023/05/27 05:42:18;;;;;;;22.80;4.13;;;;;;;;;;6256306;22;20042;-94
2023/05/27 05:44:44;;;;;;;20.42;4.47;;;;;;;;;;6248452;22;20338;-93
2023/05/27 05:47:11;;;;;;;17.13;4.03;;;;;;;;;;6246548;22;20014;-94
2023/05/27 05:49:37;;;;;;;18.90;3.97;;;;;;;;;;6247108;22;20411;-95
2023/05/27 05:52:06;;;;;;;16.23;5.38;;;;;;;;;;6246201;22;20090;-95
2023/05/27 05:54:35;;;;;;;14.25;3.65;;;;;;;;;;6248360;22;20094;-94
2023/05/27 05:57:05;;;;;;;16.58;4.45;;;;;;;;;;6245660;22;20026;-94
2023/05/27 05:59:31;;;;;;;17.80;4.85;;;;;;;;;;6245329;22;20023;-94
2023/05/27 06:01:58;;;;;;;15.98;3.67;;;;;;;;;;6245122;22;20099;-94
2023/05/27 06:04:24;;;;;;;11.93;3.65;;;;;;;;;;6247196;22;20007;-94
2023/05/27 06:06:50;;;;;;;22.30;3.45;;;;;;;;;;6246032;22;20898;-95
2023/05/27 06:09:16;;;;;;;17.60;4.53;;;;;;;;;;6245287;22;20004;-95
2023/05/27 06:11:43;;;;;;;15.68;3.83;;;;;;;;;;6242909;22;20008;-95
2023/05/27 06:14:12;;;;;;;18.58;4.95;;;;;;;;;;6246269;22;20408;-95
2023/05/27 06:16:39;;;;;;;22.52;4.20;;;;;;;;;;6244474;22;20731;-95
2023/05/27 06:19:06;;;;;;;18.10;4.32;;;;;;;;;;6245366;22;20093;-95
2023/05/27 06:21:36;;;;;;;17.67;4.22;;;;;;;;;;6243590;22;20008;-96
2023/05/27 06:24:03;;;;;;;23.40;4.80;;;;;;;;;;6244143;22;20463;-95
2023/05/27 06:26:32;;;;;;;15.00;4.30;;;;;;;;;;6245550;22;20345;-95
2023/05/27 06:28:58;;;;;;;25.40;3.92;;;;;;;;;;6244935;22;20052;-95
2023/05/27 06:31:24;;;;;;;20.35;4.32;;;;;;;;;;6244979;22;20012;-94
2023/05/27 06:33:51;;;;;;;21.23;3.35;;;;;;;;;;6245181;22;20011;-95
2023/05/27 06:36:18;;;;;;;34.45;4.78;;;;;;;;;;6244422;22;20011;-95
2023/05/27 06:38:51;;;;;;;15.10;4.32;;;;;;;;;;6190746;22;20086;-95
2023/05/27 06:41:20;;;;;;;19.02;3.95;;;;;;;;;;6184613;23;20083;-94
2023/05/27 06:43:49;;;;;;;19.42;4.22;;;;;;;;;;6184434;23;20004;-95
2023/05/27 06:46:15;;;;;;;13.77;4.90;;;;;;;;;;6191771;23;20032;-95
2023/05/27 06:48:42;;;;;;;15.88;3.80;;;;;;;;;;6210807;23;20008;-94
2023/05/27 06:51:08;;;;;;;28.42;4.38;;;;;;;;;;6210555;23;20024;-94
2023/05/27 06:53:34;;;;;;;20.02;4.43;;;;;;;;;;6209640;23;20012;-95
2023/05/27 06:56:01;;;;;;;18.65;4.22;;;;;;;;;;6209582;23;20067;-94
2023/05/27 06:58:36;;;;;;;14.23;4.20;;;;;;;;;;6208216;23;20013;-94
2023/05/27 07:01:05;;;;;;;17.63;4.63;;;;;;;;;;6211882;23;20013;-95
2023/05/27 07:03:31;;;;;;;27.80;4.45;;;;;;;;;;6208824;23;20393;-94
2023/05/27 07:05:58;;;;;;;28.95;4.57;;;;;;;;;;6210425;23;20004;-95
2023/05/27 07:08:24;;;;;;;23.42;4.80;;;;;;;;;;6209217;23;20013;-94
2023/05/27 07:10:51;;;;;;;19.40;4.40;;;;;;;;;;6209355;23;20338;-95
2023/05/27 07:13:17;;;;;;;18.45;4.22;;;;;;;;;;6208417;23;20017;-95
2023/05/27 07:15:46;;;;;;;19.65;4.50;;;;;;;;;;6209617;23;20019;-95
2023/05/27 07:18:16;;;;;;;22.35;4.93;;;;;;;;;;6209295;23;20462;-95
2023/05/27 07:20:51;;;;;;;21.30;4.43;;;;;;;;;;6215620;23;20024;-94
2023/05/27 07:23:18;;;;;;;24.00;5.43;;;;;;;;;;6214916;23;20439;-95
2023/05/27 07:25:44;;;;;;;21.80;5.20;;;;;;;;;;6215773;23;20215;-95
2023/05/27 07:28:21;;;;;;;24.45;5.20;;;;;;;;;;6214813;23;20076;-95
2023/05/27 07:33:36;;;;;;;20.02;4.65;;;;;;;;;;6165563;23;20017;-94
2023/05/27 07:36:06;;;;;;;22.58;4.85;;;;;;;;;;6223312;23;20021;-93
2023/05/27 07:38:38;;;;;;;26.95;5.13;;;;;;;;;;6249040;22;20031;-95
2023/05/27 07:41:10;;;;;;;16.95;5.68;;;;;;;;;;6250234;23;20488;-93
2023/05/27 07:43:38;;;;;;;19.70;4.60;;;;;;;;;;6249897;23;20007;-94
2023/05/27 07:46:22;;;;;;;18.08;4.38;;;;;;;;;;6250442;23;20000;-96
2023/05/27 07:48:49;;;;;;;19.88;5.93;;;;;;;;;;6246945;23;20019;-95
2023/05/27 07:51:15;;;;;;;14.13;4.45;;;;;;;;;;6247241;23;20464;-94
2023/05/27 07:53:57;;;;;;;21.08;5.95;;;;;;;;;;6243694;23;20007;-94
2023/05/27 07:56:24;;;;;;;16.75;4.50;;;;;;;;;;6245016;23;20035;-95
2023/05/27 07:58:52;;;;;;;21.33;4.45;;;;;;;;;;6242778;23;20064;-96
2023/05/27 08:01:20;;;;;;;20.60;5.50;;;;;;;;;;6244785;23;20332;-95
2023/05/27 08:03:46;;;;;;;20.58;5.43;;;;;;;;;;6244990;23;20331;-95
2023/05/27 08:06:12;;;;;;;20.27;5.03;;;;;;;;;;6246103;23;20009;-95
2023/05/27 08:08:42;;;;;;;16.60;4.38;;;;;;;;;;6245464;23;20054;-96
2023/05/27 08:11:11;;;;;;;21.98;4.70;;;;;;;;;;6246510;23;20016;-95
2023/05/27 08:13:37;;;;;;;14.93;4.68;;;;;;;;;;6249976;23;20011;-95
2023/05/27 08:16:09;;;;;;;21.60;4.88;;;;;;;;;;6245379;23;20008;-95
2023/05/27 08:18:39;;;;;;;14.60;4.47;;;;;;;;;;6246447;23;20450;-94
2023/05/27 08:21:17;;;;;;;16.50;4.82;;;;;;;;;;6250180;23;20245;-96
2023/05/27 08:23:46;;;;;;;23.58;4.75;;;;;;;;;;6246397;23;20505;-94
2023/05/27 08:26:12;;;;;;;18.30;5.13;;;;;;;;;;6247220;23;20340;-95
2023/05/27 08:28:55;;;;;;;20.42;5.45;;;;;;;;;;6246667;23;20027;-94
2023/05/27 08:31:22;;;;;;;17.10;4.78;;;;;;;;;;6244750;23;20008;-95
2023/05/27 08:34:01;;;;;;;15.35;4.82;;;;;;;;;;6249083;23;20035;-95
2023/05/27 08:36:28;;;;;;;15.00;4.43;;;;;;;;;;6251459;23;20008;-95
2023/05/27 08:38:59;;;;;;;19.27;4.60;;;;;;;;;;6249867;22;20024;-95
2023/05/27 08:41:47;;;;;;;20.88;4.57;;;;;;;;;;6247796;23;20042;-95
2023/05/27 08:44:14;;;;;;;14.68;4.00;;;;;;;;;;6245927;23;20350;-95
2023/05/27 08:46:41;;;;;;;18.40;4.53;;;;;;;;;;6245170;23;20279;-95
2023/05/27 08:49:26;;;;;;;22.58;4.70;;;;;;;;;;6243354;23;20035;-95
2023/05/27 08:53:03;;;;;;;16.00;4.53;;;;;;;;;;6248627;23;20015;-95
2023/05/27 08:54:53;;;;;;;21.17;4.95;;;;;;;;;;6230892;23;20023;-95
2023/05/27 08:57:38;;;;;;;20.35;4.50;;;;;;;;;;6250150;23;20008;-94
2023/05/27 09:00:11;;;;;;;15.88;4.03;;;;;;;;;;6251247;23;20015;-94
2023/05/27 09:02:59;;;;;;;20.92;4.28;;;;;;;;;;6250386;23;20008;-94
2023/05/27 09:05:27;;;;;;;17.10;4.55;;;;;;;;;;6248959;23;20054;-95
2023/05/27 09:10:45;;;;;;;17.33;4.57;;;;;;;;;;6222723;23;20064;-94
2023/05/27 09:13:37;;;;;;;16.63;3.90;;;;;;;;;;6249210;23;20008;-96
2023/05/27 09:16:05;;;;;;;15.27;4.07;;;;;;;;;;6254954;22;20016;-95
2023/05/27 09:18:45;;;;;;;19.83;4.68;;;;;;;;;;6255536;23;20062;-95
2023/05/27 09:21:30;;;;;;;22.40;5.32;;;;;;;;;;6261292;23;20003;-95
2023/05/27 09:23:57;;;;;;;12.65;4.28;;;;;;;;;;6254898;23;20011;-95
2023/05/27 09:26:28;;;;;;;21.23;5.05;;;;;;;;;;6252200;23;20013;-95
2023/05/27 09:29:19;;;;;;;15.73;3.83;;;;;;;;;;6250782;23;20018;-96
2023/05/27 09:31:51;;;;;;;14.27;4.13;;;;;;;;;;6163384;23;20023;-95
2023/05/27 09:40:38;;;;;;;16.27;4.55;;;;;;;;;;6119844;23;20132;-93
2023/05/27 09:43:05;;;;;;;18.60;5.13;;;;;;;;;;6199267;23;20031;-95
2023/05/27 09:45:32;;;;;;;16.42;4.38;;;;;;;;;;6221197;23;20035;-95
2023/05/27 09:48:03;;;;;;;20.88;5.72;;;;;;;;;;6220524;23;20004;-95
2023/05/27 09:56:17;;;;;;;15.90;4.70;;;;;;;;;;6246673;22;20012;-95
2023/05/27 09:58:47;;;;;;;22.52;4.50;;;;;;;;;;6217876;23;20066;-93
2023/05/27 10:01:31;;;;;;;19.60;5.10;;;;;;;;;;6219410;23;20004;-95
2023/05/27 10:03:58;;;;;;;15.13;5.05;;;;;;;;;;6219972;23;20005;-95
2023/05/27 10:06:25;;;;;;;22.92;4.80;;;;;;;;;;6220154;23;20008;-96
2023/05/27 10:09:16;;;;;;;16.27;4.45;;;;;;;;;;6218961;23;20015;-95
2023/05/27 10:11:49;;;;;;;18.52;6.25;;;;;;;;;;6215523;23;20019;-95
2023/05/27 10:14:17;;;;;;;15.27;4.57;;;;;;;;;;6220863;23;20012;-95
2023/05/27 10:16:53;;;;;;;19.65;6.10;;;;;;;;;;6219268;23;20012;-94
2023/05/27 10:19:57;;;;;;;18.13;5.47;;;;;;;;;;6220534;23;20012;-94
2023/05/27 10:22:32;;;;;;;16.65;4.97;;;;;;;;;;6221073;23;20442;-96
2023/05/27 10:24:58;;;;;;;;;;;;;;;;;;6221035;23;20004;-95
2023/05/27 10:27:38;;;;;;;;;;;;;;;;;;;;;
2023/05/27 10:30:07;;;;;;;17.13;5.35;;;;;;;;;;6245526;23;20044;-95
2023/05/27 10:32:43;;;;;;;16.90;5.22;;;;;;;;;;6218538;23;20016;-94
2023/05/27 10:35:09;;;;;;;22.88;4.85;;;;;;;;;;6220265;23;20008;-95
2023/05/27 10:37:46;;;;;;;14.13;4.72;;;;;;;;;;6226654;22;20020;-96
2023/05/27 10:40:38;;;;;;;15.48;5.10;;;;;;;;;;6250501;22;20026;-94
2023/05/27 10:43:23;;;;;;;11.98;4.32;;;;;;;;;;6251470;22;20054;-95
2023/05/27 10:46:01;;;;;;;17.48;5.63;;;;;;;;;;6255356;22;20003;-95
2023/05/27 10:48:35;;;;;;;14.05;4.90;;;;;;;;;;6255707;22;20207;-95
2023/05/27 10:54:17;;;;;;;13.05;5.50;;;;;;;;;;6287496;22;20027;-96
2023/05/27 10:56:59;;;;;;;;;;;;;;;;;;;;;
2023/05/27 10:59:39;;;;;;;16.17;4.97;;;;;;;;;;6293161;22;19907;-95
2023/05/27 11:05:22;;;;;;;15.00;4.80;;;;;;;;;;6200162;23;20035;-95
2023/05/27 11:11:50;;;;;;;14.70;4.97;;;;;;;;;;6202081;23;20008;-95
2023/05/27 11:20:44;;;;;;;11.27;4.70;;;;;;;;;;6086299;23;20037;-95
2023/05/27 11:32:39;;;;;;;19.35;6.05;;;;;;;;;;6084261;23;20042;-95
2023/05/27 11:35:19;;;;;;;12.05;4.78;;;;;;;;;;6208201;22;20058;-93
2023/05/27 11:38:07;;;;;;;15.07;4.35;;;;;;;;;;6251376;22;20004;-94
2023/05/27 11:40:48;;;;;;;13.70;4.55;;;;;;;;;;6274170;22;20055;-94
2023/05/27 11:46:20;;;;;;;9.35;4.25;;;;;;;;;;6180808;23;20108;-95
2023/05/27 11:51:57;;;;;;;13.60;4.60;;;;;;;;;;6123262;23;20010;-96
2023/05/27 11:57:30;;;;;;;18.13;4.85;;;;;;;;;;6182838;22;20004;-95
2023/05/27 12:00:00;;;;;;;18.00;4.47;;;;;;;;;;6245083;22;20012;-94
2023/05/27 12:02:26;;;;;;;14.13;4.43;;;;;;;;;;6258601;22;20012;-96
2023/05/27 12:05:08;;;;;;;15.07;5.07;;;;;;;;;;6252595;22;20006;-96
2023/05/27 12:07:59;;;;;;;16.30;5.03;;;;;;;;;;6259590;22;20441;-95
2023/05/27 12:10:26;;;;;;;16.83;5.80;;;;;;;;;;6250682;22;20022;-95
2023/05/27 12:12:52;;;;;;;13.90;4.75;;;;;;;;;;6249480;22;20015;-95
2023/05/27 12:15:25;;;;;;;12.30;4.72;;;;;;;;;;6249409;22;20031;-95
2023/05/27 12:17:58;;;;;;;14.73;4.97;;;;;;;;;;6255598;22;20022;-95
2023/05/27 12:20:30;;;;;;;16.13;5.15;;;;;;;;;;6252421;22;20003;-94
2023/05/27 12:22:56;;;;;;;13.65;5.00;;;;;;;;;;6252510;22;20031;-94
2023/05/27 12:25:23;;;;;;;22.95;4.88;;;;;;;;;;6249416;22;20390;-94
2023/05/27 12:27:50;;;;;;;11.30;4.57;;;;;;;;;;6251076;22;20057;-94
2023/05/27 12:30:16;;;;;;;18.63;4.97;;;;;;;;;;6250579;22;20023;-96
2023/05/27 12:32:56;;;;;;;11.48;4.82;;;;;;;;;;6216198;23;20089;-95
2023/05/27 12:35:25;;;;;;;15.90;5.35;;;;;;;;;;6190407;23;20019;-95
2023/05/27 12:41:05;;;;;;;;;;;;;;;;;;;;;
2023/05/27 12:43:41;;;;;;;17.55;4.65;;;;;;;;;;6185985;23;20047;-95
2023/05/27 12:46:08;;;;;;;22.63;5.32;;;;;;;;;;6186734;23;20012;-96
2023/05/27 12:49:09;;;;;;;16.42;5.25;;;;;;;;;;6160650;23;20012;-95
2023/05/27 12:51:51;;;;;;;16.45;4.80;;;;;;;;;;6162124;23;20009;-94
2023/05/27 12:54:20;;;;;;;14.60;5.82;;;;;;;;;;6187435;23;20466;-96
2023/05/27 12:56:47;;;;;;;12.10;4.80;;;;;;;;;;6163610;23;20009;-95
2023/05/27 12:59:21;;;;;;;16.00;6.45;;;;;;;;;;6186712;23;20043;-95
2023/05/27 13:01:47;;;;;;;16.42;5.47;;;;;;;;;;6189035;23;20017;-95
2023/05/27 13:04:19;;;;;;;18.92;5.97;;;;;;;;;;6169427;23;20073;-94
2023/05/27 13:06:50;;;;;;;17.35;4.88;;;;;;;;;;6184181;23;20060;-94
2023/05/27 13:09:16;;;;;;;12.70;4.57;;;;;;;;;;6190311;23;20009;-95
2023/05/27 13:11:48;;;;;;;14.48;5.35;;;;;;;;;;6217334;23;20012;-95
2023/05/27 13:14:15;;;;;;;18.02;5.28;;;;;;;;;;6224290;23;20027;-94
2023/05/27 13:16:42;;;;;;;17.05;6.07;;;;;;;;;;6222936;23;20004;-95
2023/05/27 13:19:34;;;;;;;;;;;;;;;;;;;;;
2023/05/27 13:22:16;;;;;;;17.05;5.10;;;;;;;;;;6231060;23;20031;-96
2023/05/27 13:24:45;;;;;;;16.02;5.30;;;;;;;;;;6216902;23;20011;-95
2023/05/27 13:27:12;;;;;;;20.02;6.32;;;;;;;;;;6216115;23;20000;-95
2023/05/27 13:29:38;;;;;;;15.18;5.93;;;;;;;;;;6215432;23;20032;-95
2023/05/27 13:32:04;;;;;;;17.85;5.15;;;;;;;;;;6217220;23;20058;-94
2023/05/27 13:34:46;;;;;;;14.27;5.68;;;;;;;;;;6217275;23;20008;-95
2023/05/27 13:37:12;;;;;;;15.07;5.70;;;;;;;;;;6214896;23;20023;-95
2023/05/27 13:39:42;;;;;;;16.70;5.85;;;;;;;;;;6222827;23;20004;-95
2023/05/27 13:42:10;;;;;;;14.30;5.25;;;;;;;;;;6249367;22;20016;-94
2023/05/27 13:47:30;;;;;;;15.80;5.72;;;;;;;;;;6220158;22;20449;-96
2023/05/27 13:49:57;;;;;;;16.65;5.75;;;;;;;;;;6248016;23;20013;-96
2023/05/27 13:52:23;;;;;;;15.95;5.22;;;;;;;;;;6248830;23;20047;-95
2023/05/27 13:54:53;;;;;;;17.80;5.10;;;;;;;;;;6246808;23;20012;-95
2023/05/27 13:57:28;;;;;;;18.38;5.07;;;;;;;;;;6244377;23;20012;-95
2023/05/27 14:00:03;;;;;;;16.00;5.03;;;;;;;;;;6240588;23;20032;-95
2023/05/27 14:02:45;;;;;;;;;;;;;;;;;;6244232;23;20004;-96
2023/05/27 14:05:12;;;;;;;13.80;4.93;;;;;;;;;;6241465;23;19904;-95
2023/05/27 14:07:53;;;;;;;18.95;5.38;;;;;;;;;;6242792;23;20008;-94
2023/05/27 14:10:19;;;;;;;16.27;6.10;;;;;;;;;;6241821;23;20317;-95
2023/05/27 14:12:47;;;;;;;17.05;5.60;;;;;;;;;;6242729;23;20015;-96
2023/05/27 14:18:17;;;;;;;20.40;5.20;;;;;;;;;;6237993;22;20012;-96
2023/05/27 14:20:43;;;;;;;19.52;5.90;;;;;;;;;;6243523;23;20016;-94
2023/05/27 14:23:12;;;;;;;21.20;4.55;;;;;;;;;;6243176;23;20060;-96
2023/05/27 14:25:45;;;;;;;12.07;4.93;;;;;;;;;;6243142;23;20058;-95
2023/05/27 14:28:11;;;;;;;20.30;5.07;;;;;;;;;;6243387;23;20039;-94
2023/05/27 14:30:37;;;;;;;19.15;4.60;;;;;;;;;;6242730;23;20011;-95
2023/05/27 14:33:07;;;;;;;18.90;5.20;;;;;;;;;;6244304;23;20018;-95
2023/05/27 14:35:40;;;;;;;21.80;5.60;;;;;;;;;;6242946;23;20012;-96
2023/05/27 14:38:07;;;;;;;15.15;4.55;;;;;;;;;;6243375;22;20430;-95
2023/05/27 14:40:34;;;;;;;17.48;5.05;;;;;;;;;;6245292;22;20020;-96
2023/05/27 14:43:07;;;;;;;20.80;5.80;;;;;;;;;;6243587;23;20004;-95
2023/05/27 14:45:33;;;;;;;12.63;4.57;;;;;;;;;;6239946;23;20018;-96
2023/05/27 14:47:59;;;;;;;17.70;4.90;;;;;;;;;;6242895;23;20035;-95
2023/05/27 14:50:25;;;;;;;23.48;5.85;;;;;;;;;;6242688;23;20012;-95
2023/05/27 14:52:52;;;;;;;17.08;5.10;;;;;;;;;;6244457;23;20008;-95
2023/05/27 14:55:21;;;;;;;14.32;5.13;;;;;;;;;;6241667;23;20038;-96
2023/05/27 14:57:47;;;;;;;20.15;4.80;;;;;;;;;;6243731;23;20015;-96
2023/05/27 15:00:14;;;;;;;20.50;7.18;;;;;;;;;;6241504;23;20091;-96
2023/05/27 15:02:44;;;;;;;47.65;25.70;;;;;;;;;;6243131;23;20280;-95
2023/05/27 15:05:10;;;;;;;31.40;12.65;;;;;;;;;;6241487;23;20099;-95
2023/05/27 15:07:38;;;;;;;24.95;12.10;;;;;;;;;;6242645;23;20014;-96
2023/05/27 15:10:05;;;;;;;26.67;12.18;;;;;;;;;;6241238;23;20012;-95
2023/05/27 15:12:41;;;;;;;17.33;5.07;;;;;;;;;;6241030;23;20016;-96
2023/05/27 15:15:10;;;;;;;36.40;13.00;;;;;;;;;;6240891;23;20008;-96
2023/05/27 15:17:36;;;;;;;25.45;9.70;;;;;;;;;;6242467;23;20083;-96
2023/05/27 15:20:06;;;;;;;129.40;52.40;;;;;;;;;;6240268;23;20012;-96
2023/05/27 15:22:32;;;;;;;40.13;14.98;;;;;;;;;;6241068;23;20004;-96
2023/05/27 15:25:05;;;;;;;12.98;4.72;;;;;;;;;;6242034;23;20003;-96
2023/05/27 15:27:32;;;;;;;21.25;5.95;;;;;;;;;;6243013;23;20030;-96
2023/05/27 15:29:59;;;;;;;15.18;5.03;;;;;;;;;;6240105;23;20264;-95
2023/05/27 15:32:25;;;;;;;14.30;4.50;;;;;;;;;;6243846;23;20043;-95
2023/05/27 15:35:03;;;;;;;18.60;4.90;;;;;;;;;;6240960;23;20019;-95
2023/05/27 15:37:37;;;;;;;23.45;5.05;;;;;;;;;;6243771;22;20350;-94
2023/05/27 15:40:06;;;;;;;21.35;8.82;;;;;;;;;;6245597;22;20365;-95
2023/05/27 15:42:34;;;;;;;26.52;9.48;;;;;;;;;;6222833;23;20376;-95
2023/05/27 15:45:06;;;;;;;27.77;11.43;;;;;;;;;;6252782;23;20043;-95
2023/05/27 15:47:32;;;;;;;36.38;16.45;;;;;;;;;;6255363;23;20012;-96
2023/05/27 15:49:59;;;;;;;26.85;8.20;;;;;;;;;;6257409;23;20458;-96
2023/05/27 15:52:25;;;;;;;24.80;6.43;;;;;;;;;;6257747;23;20019;-96
2023/05/27 15:54:52;;;;;;;25.85;8.30;;;;;;;;;;6257408;23;20019;-96
2023/05/27 15:57:18;;;;;;;23.67;5.57;;;;;;;;;;6259897;23;20012;-96
2023/05/27 15:59:45;;;;;;;22.38;6.07;;;;;;;;;;6258935;23;20012;-96